createdAt,value
2022-09-11T00:01:15.211Z,3.97
2022-09-11T00:03:43.542Z,4.03
2022-09-11T00:06:12.726Z,3.63
2022-09-11T00:08:41.232Z,4.57
2022-09-11T00:11:18.352Z,3.80
2022-09-11T00:13:48.691Z,4.10
2022-09-11T00:16:26.827Z,3.75
2022-09-11T00:18:54.954Z,4.05
2022-09-11T00:21:22.062Z,4.05
2022-09-11T00:23:49.735Z,4.07
2022-09-11T00:26:20.415Z,4.00
2022-09-11T00:28:47.811Z,4.18
2022-09-11T00:31:17.331Z,4.07
2022-09-11T00:33:44.667Z,3.67
2022-09-11T00:36:15.759Z,4.20
2022-09-11T00:38:43.095Z,4.25
2022-09-11T00:41:25.516Z,4.03
2022-09-11T00:44:08.058Z,3.95
2022-09-11T00:46:49.968Z,3.95
2022-09-11T00:49:36.906Z,3.97
2022-09-11T00:52:11.453Z,4.38
2022-09-11T00:54:43.855Z,4.67
2022-09-11T00:57:10.918Z,4.57
2022-09-11T00:59:41.238Z,4.40
2022-09-11T01:02:13.762Z,5.00
2022-09-11T01:04:40.483Z,4.78
2022-09-11T01:07:07.359Z,4.10
2022-09-11T01:09:34.150Z,4.72
2022-09-11T01:12:07.539Z,5.78
2022-09-11T01:14:54.973Z,5.38
2022-09-11T01:17:47.066Z,4.63
2022-09-11T01:20:31.832Z,5.28
2022-09-11T01:23:14.419Z,5.30
2022-09-11T01:26:08.992Z,5.32
2022-09-11T01:29:02.634Z,4.30
2022-09-11T01:31:37.075Z,4.97
2022-09-11T01:34:16.591Z,4.20
2022-09-11T01:36:53.667Z,4.20
2022-09-11T01:39:25.939Z,4.82
2022-09-11T01:42:05.792Z,5.32
2022-09-11T01:44:36.930Z,4.30
2022-09-11T01:47:07.638Z,4.25
2022-09-11T01:50:12.004Z,5.25
2022-09-11T01:53:02.011Z,5.03
2022-09-11T01:55:35.147Z,5.55
2022-09-11T01:58:09.625Z,6.18
2022-09-11T02:00:38.867Z,5.18
2022-09-11T02:03:36.974Z,6.00
2022-09-11T02:06:12.435Z,4.60
2022-09-11T02:11:12.637Z,4.80
2022-09-11T02:14:00.774Z,4.75
2022-09-11T02:16:49.043Z,4.57
2022-09-11T02:19:18.846Z,4.85
2022-09-11T02:21:48.052Z,5.10
2022-09-11T02:24:15.807Z,4.60
2022-09-11T02:26:46.897Z,4.82
2022-09-11T02:29:15.194Z,5.05
2022-09-11T02:31:43.705Z,4.75
2022-09-11T02:34:13.115Z,5.10
2022-09-11T02:37:07.060Z,4.85
2022-09-11T02:40:19.391Z,4.95
2022-09-11T02:43:23.288Z,5.03
2022-09-11T02:45:55.886Z,4.90
2022-09-11T02:48:55.028Z,4.78
2022-09-11T02:51:28.910Z,5.00
2022-09-11T02:54:02.186Z,5.40
2022-09-11T02:56:42.487Z,5.38
2022-09-11T02:59:26.567Z,4.97
2022-09-11T03:01:55.636Z,5.55
2022-09-11T03:04:24.574Z,4.80
2022-09-11T03:06:52.512Z,4.95
2022-09-11T03:09:19.984Z,5.60
2022-09-11T03:11:46.892Z,4.93
2022-09-11T03:14:14.287Z,4.80
2022-09-11T03:16:41.595Z,5.43
2022-09-11T03:19:08.516Z,5.22
2022-09-11T03:21:35.270Z,5.72
2022-09-11T03:24:03.663Z,5.63
2022-09-11T03:26:32.953Z,5.57
2022-09-11T03:28:59.825Z,5.55
2022-09-11T03:31:26.559Z,5.72
2022-09-11T03:33:53.947Z,6.75
2022-09-11T03:36:20.935Z,6.13
2022-09-11T03:38:48.024Z,5.88
2022-09-11T03:41:15.454Z,6.35
2022-09-11T03:43:42.412Z,5.97
2022-09-11T03:46:09.255Z,6.07
2022-09-11T03:48:36.013Z,5.55
2022-09-11T03:51:05.635Z,6.05
2022-09-11T03:53:33.213Z,5.90
2022-09-11T03:56:01.067Z,5.82
2022-09-11T03:58:27.680Z,5.88
2022-09-11T04:00:54.378Z,6.07
2022-09-11T04:03:21.080Z,6.30
2022-09-11T04:06:00.405Z,5.40
2022-09-11T04:08:27.574Z,5.65
2022-09-11T04:11:12.676Z,5.07
2022-09-11T04:13:42.101Z,6.13
2022-09-11T04:16:12.858Z,5.90
2022-09-11T04:18:41.018Z,5.55
2022-09-11T04:21:09.928Z,5.60
2022-09-11T04:23:36.867Z,5.22
2022-09-11T04:26:12.333Z,6.30
2022-09-11T04:31:06.399Z,5.07
2022-09-11T04:33:35.473Z,5.57
2022-09-11T04:36:10.284Z,5.10
2022-09-11T04:38:38.065Z,4.90
2022-09-11T04:41:06.369Z,5.47
2022-09-11T04:43:35.465Z,4.45
2022-09-11T04:46:04.782Z,4.80
2022-09-11T04:48:31.677Z,4.78
2022-09-11T04:51:03.954Z,4.80
2022-09-11T04:53:32.104Z,5.00
2022-09-11T04:56:15.007Z,4.63
2022-09-11T04:58:42.981Z,5.20
2022-09-11T05:01:15.465Z,4.70
2022-09-11T05:03:43.878Z,4.82
2022-09-11T05:06:16.314Z,4.80
2022-09-11T05:08:44.852Z,4.43
2022-09-11T05:11:16.333Z,5.30
2022-09-11T05:13:43.903Z,5.38
2022-09-11T05:16:16.113Z,4.90
2022-09-11T05:18:48.655Z,4.50
2022-09-11T05:21:18.045Z,4.88
2022-09-11T05:23:48.626Z,4.65
2022-09-11T05:26:17.697Z,4.97
2022-09-11T05:28:45.082Z,5.82
2022-09-11T05:31:22.163Z,5.18
2022-09-11T05:33:49.105Z,4.82
2022-09-11T05:36:16.840Z,4.60
2022-09-11T05:38:43.972Z,5.07
2022-09-11T05:41:12.523Z,5.32
2022-09-11T05:43:40.140Z,5.13
2022-09-11T05:46:08.262Z,5.63
2022-09-11T05:48:38.587Z,5.10
2022-09-11T05:51:18.448Z,4.80
2022-09-11T05:53:46.161Z,5.50
2022-09-11T05:56:18.264Z,4.93
2022-09-11T05:58:46.231Z,5.28
2022-09-11T06:01:15.684Z,5.80
2022-09-11T06:03:42.590Z,5.75
2022-09-11T06:06:11.802Z,5.13
2022-09-11T06:08:40.407Z,6.25
2022-09-11T06:11:08.000Z,5.47
2022-09-11T06:13:38.993Z,4.80
2022-09-11T06:16:10.011Z,4.55
2022-09-11T06:18:36.915Z,3.88
2022-09-11T06:21:07.124Z,4.03
2022-09-11T06:23:35.635Z,4.50
2022-09-11T06:26:04.897Z,4.28
2022-09-11T06:28:31.870Z,4.60
2022-09-11T06:30:58.624Z,4.15
2022-09-11T06:33:25.443Z,4.20
2022-09-11T06:35:59.315Z,4.50
2022-09-11T06:38:27.081Z,4.47
2022-09-11T06:40:54.531Z,4.68
2022-09-11T06:43:21.320Z,5.78
2022-09-11T06:45:51.344Z,5.40
2022-09-11T06:48:21.504Z,4.80
2022-09-11T06:50:48.157Z,5.10
2022-09-11T06:53:15.272Z,4.60
2022-09-11T06:55:41.897Z,4.47
2022-09-11T06:58:08.928Z,4.18
2022-09-11T07:00:36.622Z,3.88
2022-09-11T07:03:04.640Z,3.47
2022-09-11T07:05:31.426Z,3.60
2022-09-11T07:07:58.147Z,4.05
2022-09-11T07:10:25.349Z,4.05
2022-09-11T07:12:55.857Z,4.10
2022-09-11T07:15:22.736Z,4.13
2022-09-11T07:17:49.453Z,3.63
2022-09-11T07:20:17.617Z,4.15
2022-09-11T07:22:45.505Z,3.95
2022-09-11T07:25:12.576Z,3.92
2022-09-11T07:27:39.369Z,4.28
2022-09-11T07:30:06.777Z,3.55
2022-09-11T07:32:33.462Z,2.78
2022-09-11T07:35:02.343Z,2.40
2022-09-11T07:37:29.059Z,2.65
2022-09-11T07:39:55.817Z,2.70
2022-09-11T07:42:22.547Z,2.40
2022-09-11T07:44:50.646Z,2.50
2022-09-11T07:47:17.486Z,2.10
2022-09-11T07:49:47.066Z,2.30
2022-09-11T07:52:20.160Z,1.85
2022-09-11T07:54:47.162Z,2.00
2022-09-11T07:57:14.095Z,1.95
2022-09-11T07:59:40.812Z,1.92
2022-09-11T08:02:09.277Z,2.80
2022-09-11T08:04:36.029Z,2.30
2022-09-11T08:07:02.912Z,2.33
2022-09-11T08:09:29.832Z,2.28
2022-09-11T08:11:58.585Z,2.10
2022-09-11T08:14:28.528Z,1.98
2022-09-11T08:16:55.217Z,1.65
2022-09-11T08:19:23.339Z,1.58
2022-09-11T08:21:51.051Z,1.50
2022-09-11T08:24:18.475Z,1.60
2022-09-11T08:26:48.788Z,1.73
2022-09-11T08:29:16.097Z,1.75
2022-09-11T08:31:42.861Z,2.38
2022-09-11T08:34:10.285Z,1.60
2022-09-11T08:36:37.098Z,1.35
2022-09-11T08:39:05.240Z,1.67
2022-09-11T08:41:34.956Z,1.77
2022-09-11T08:44:10.510Z,1.63
2022-09-11T08:46:41.131Z,1.92
2022-09-11T08:49:27.404Z,2.30
2022-09-11T08:52:01.572Z,1.83
2022-09-11T08:54:38.207Z,1.65
2022-09-11T08:57:13.731Z,1.65
2022-09-11T08:59:40.434Z,2.28
2022-09-11T09:02:25.915Z,1.80
2022-09-11T09:05:21.348Z,1.33
2022-09-11T09:08:23.436Z,1.30
2022-09-11T09:10:55.867Z,1.10
2022-09-11T09:13:59.212Z,1.42
2022-09-11T09:16:35.023Z,1.50
2022-09-11T09:19:14.722Z,2.08
2022-09-11T09:21:52.363Z,1.75
2022-09-11T09:24:20.558Z,2.00
2022-09-11T09:26:53.040Z,1.70
2022-09-11T09:29:24.616Z,1.83
2022-09-11T09:31:55.036Z,2.35
2022-09-11T09:34:23.857Z,2.28
2022-09-11T09:36:50.576Z,2.50
2022-09-11T09:39:19.380Z,2.00
2022-09-11T09:42:23.814Z,1.83
2022-09-11T09:45:19.056Z,2.40
2022-09-11T09:47:48.539Z,2.83
2022-09-11T09:50:22.928Z,2.00
2022-09-11T09:52:50.823Z,1.65
2022-09-11T09:55:20.414Z,2.10
2022-09-11T09:57:47.223Z,1.90
2022-09-11T10:00:19.025Z,1.80
2022-09-11T10:02:49.254Z,1.75
2022-09-11T10:05:20.083Z,2.00
2022-09-11T10:07:56.808Z,1.60
2022-09-11T10:10:38.043Z,1.98
2022-09-11T10:13:22.319Z,1.50
2022-09-11T10:15:50.063Z,1.73
2022-09-11T10:18:29.449Z,2.00
2022-09-11T10:21:18.460Z,2.33
2022-09-11T10:23:59.989Z,1.60
2022-09-11T10:26:43.618Z,1.50
2022-09-11T10:29:16.118Z,1.65
2022-09-11T10:31:50.607Z,1.85
2022-09-11T10:34:20.135Z,1.70
2022-09-11T10:36:56.676Z,1.40
2022-09-11T10:39:26.143Z,1.70
2022-09-11T10:41:57.644Z,1.60
2022-09-11T10:44:24.431Z,1.42
2022-09-11T10:47:17.318Z,1.50
2022-09-11T10:49:44.932Z,1.50
2022-09-11T10:52:11.564Z,1.50
2022-09-11T10:55:08.651Z,1.52
2022-09-11T10:57:52.059Z,1.73
2022-09-11T11:00:22.762Z,1.80
2022-09-11T11:03:17.609Z,1.40
2022-09-11T11:05:50.033Z,1.38
2022-09-11T11:08:19.829Z,1.67
2022-09-11T11:10:57.165Z,1.27
2022-09-11T11:13:42.690Z,1.42
2022-09-11T11:18:52.131Z,1.50
2022-09-11T11:21:27.971Z,1.70
2022-09-11T11:24:21.850Z,1.55
2022-09-11T11:26:52.493Z,1.48
2022-09-11T11:29:28.832Z,1.30
2022-09-11T11:32:11.419Z,1.60
2022-09-11T11:34:44.177Z,1.13
2022-09-11T11:37:23.178Z,1.40
2022-09-11T11:40:00.385Z,1.50
2022-09-11T11:42:35.020Z,1.27
2022-09-11T11:45:23.596Z,1.40
2022-09-11T11:47:54.556Z,1.10
2022-09-11T11:50:33.631Z,1.17
2022-09-11T11:53:12.267Z,1.20
2022-09-11T11:55:56.962Z,1.17
2022-09-11T11:58:24.176Z,1.17
2022-09-11T12:00:58.325Z,1.15
2022-09-11T12:03:36.884Z,1.00
2022-09-11T12:06:05.435Z,1.02
2022-09-11T12:08:32.553Z,1.70
2022-09-11T12:11:07.415Z,0.95
2022-09-11T12:13:36.723Z,1.10
2022-09-11T12:16:12.359Z,1.10
2022-09-11T12:18:40.084Z,0.85
2022-09-11T12:21:25.169Z,1.20
2022-09-11T12:26:30.468Z,1.23
2022-09-11T12:29:12.942Z,0.90
2022-09-11T12:32:06.838Z,0.85
2022-09-11T12:34:39.343Z,1.08
2022-09-11T12:37:12.464Z,1.00
2022-09-11T12:39:56.133Z,0.90
2022-09-11T12:42:25.854Z,1.23
2022-09-11T12:44:52.517Z,0.95
2022-09-11T12:47:23.383Z,1.10
2022-09-11T12:50:05.082Z,0.90
2022-09-11T12:52:54.881Z,1.15
2022-09-11T12:55:55.746Z,1.10
2022-09-11T12:58:31.476Z,1.02
2022-09-11T13:01:14.161Z,1.00
2022-09-11T13:04:07.882Z,1.00
2022-09-11T13:06:48.646Z,0.90
2022-09-11T13:09:36.117Z,1.20
2022-09-11T13:12:24.530Z,0.98
2022-09-11T13:14:52.133Z,1.00
2022-09-11T13:17:48.180Z,0.98
2022-09-11T13:20:22.994Z,1.25
2022-09-11T13:22:56.163Z,1.05
2022-09-11T13:25:27.918Z,1.20
2022-09-11T13:27:59.652Z,0.90
2022-09-11T13:30:27.018Z,1.08
2022-09-11T13:33:07.053Z,0.77
2022-09-11T13:35:34.712Z,1.20
2022-09-11T13:38:13.036Z,0.90
2022-09-11T13:40:49.798Z,0.90
2022-09-11T13:43:20.817Z,0.60
2022-09-11T13:45:47.952Z,0.70
2022-09-11T13:48:26.104Z,0.80
2022-09-11T13:50:53.866Z,0.90
2022-09-11T13:53:22.482Z,0.68
2022-09-11T13:55:49.840Z,0.70
2022-09-11T13:58:32.622Z,1.95
2022-09-11T14:01:14.232Z,0.80
2022-09-11T14:03:46.938Z,0.77
2022-09-11T14:06:20.513Z,0.47
2022-09-11T14:08:56.241Z,0.90
2022-09-11T14:11:31.861Z,0.90
2022-09-11T14:14:05.685Z,0.77
2022-09-11T14:16:38.943Z,0.77
2022-09-11T14:19:16.940Z,0.77
2022-09-11T14:21:46.876Z,0.80
2022-09-11T14:24:33.516Z,0.70
2022-09-11T14:27:02.315Z,0.77
2022-09-11T14:29:31.328Z,0.70
2022-09-11T14:32:33.775Z,1.10
2022-09-11T14:35:09.812Z,0.73
2022-09-11T14:37:45.558Z,1.00
2022-09-11T14:40:17.845Z,0.70
2022-09-11T14:42:45.620Z,0.68
2022-09-11T14:45:18.649Z,0.80
2022-09-11T14:47:45.339Z,0.85
2022-09-11T14:50:12.574Z,1.00
2022-09-11T14:52:40.659Z,0.90
2022-09-11T14:55:07.618Z,0.80
2022-09-11T14:57:35.090Z,0.80
2022-09-11T15:00:02.091Z,0.90
2022-09-11T15:02:29.418Z,0.73
2022-09-11T15:04:58.102Z,1.08
2022-09-11T15:07:25.735Z,1.10
2022-09-11T15:09:53.263Z,1.00
2022-09-11T15:12:21.574Z,0.75
2022-09-11T15:14:58.060Z,0.98
2022-09-11T15:17:30.448Z,0.75
2022-09-11T15:19:59.948Z,0.82
2022-09-11T15:22:27.172Z,0.90
2022-09-11T15:24:56.072Z,1.00
2022-09-11T15:27:24.974Z,0.98
2022-09-11T15:29:52.301Z,0.73
2022-09-11T15:32:19.178Z,0.77
2022-09-11T15:34:47.423Z,0.82
2022-09-11T15:37:16.503Z,1.00
2022-09-11T15:39:43.988Z,0.90
2022-09-11T15:42:11.583Z,0.90
2022-09-11T15:44:38.296Z,0.93
2022-09-11T15:47:05.222Z,0.80
2022-09-11T15:49:32.082Z,1.00
2022-09-11T15:51:59.716Z,0.70
2022-09-11T15:54:27.153Z,0.90
2022-09-11T15:56:54.529Z,0.95
2022-09-11T15:59:21.699Z,1.00
2022-09-11T16:01:48.842Z,0.80
2022-09-11T16:04:19.271Z,0.80
2022-09-11T16:06:47.674Z,0.80
2022-09-11T16:09:23.784Z,0.73
2022-09-11T16:11:50.827Z,0.73
2022-09-11T16:14:21.837Z,0.57
2022-09-11T16:16:48.626Z,0.93
2022-09-11T16:19:20.445Z,0.90
2022-09-11T16:21:47.811Z,0.98
2022-09-11T16:24:15.443Z,0.93
2022-09-11T16:26:43.487Z,0.90
2022-09-11T16:29:12.424Z,0.73
2022-09-11T16:31:40.044Z,0.80
2022-09-11T16:34:07.305Z,0.82
2022-09-11T16:36:38.437Z,0.80
2022-09-11T16:39:10.704Z,1.00
2022-09-11T16:41:37.848Z,1.00
2022-09-11T16:44:06.642Z,1.30
2022-09-11T16:46:33.491Z,0.90
2022-09-11T16:49:01.941Z,1.10
2022-09-11T16:51:29.718Z,0.82
2022-09-11T16:53:56.874Z,1.00
2022-09-11T16:56:24.545Z,0.90
2022-09-11T16:58:51.726Z,0.88
2022-09-11T17:01:24.254Z,0.98
2022-09-11T17:03:53.327Z,0.90
2022-09-11T17:06:22.228Z,1.10
2022-09-11T17:08:52.608Z,0.90
2022-09-11T17:11:21.722Z,1.38
2022-09-11T17:13:49.145Z,0.90
2022-09-11T17:16:21.970Z,1.10
2022-09-11T17:18:53.981Z,1.20
2022-09-11T17:21:24.884Z,1.10
2022-09-11T17:23:53.401Z,1.13
2022-09-11T17:26:20.708Z,1.08
2022-09-11T17:28:49.168Z,1.10
2022-09-11T17:31:19.044Z,1.00
2022-09-11T17:33:47.435Z,1.38
2022-09-11T17:36:17.793Z,1.40
2022-09-11T17:38:46.084Z,1.60
2022-09-11T17:41:13.040Z,1.83
2022-09-11T17:43:40.613Z,1.65
2022-09-11T17:46:13.143Z,1.00
2022-09-11T17:48:40.167Z,1.27
2022-09-11T17:51:12.116Z,1.60
2022-09-11T17:53:42.194Z,1.45
2022-09-11T17:56:12.122Z,1.73
2022-09-11T17:58:39.193Z,2.17
2022-09-11T18:01:07.244Z,1.83
2022-09-11T18:03:35.302Z,1.60
2022-09-11T18:06:04.335Z,1.65
2022-09-11T18:08:33.183Z,1.25
2022-09-11T18:11:01.211Z,2.22
2022-09-11T18:13:34.544Z,1.95
2022-09-11T18:16:02.818Z,2.10
2022-09-11T18:18:30.585Z,5.45
2022-09-11T18:21:05.032Z,4.35
2022-09-11T18:23:32.250Z,2.57
2022-09-11T18:26:01.002Z,1.80
2022-09-11T18:28:27.716Z,1.67
2022-09-11T18:31:01.762Z,1.23
2022-09-11T18:33:28.701Z,1.30
2022-09-11T18:35:55.456Z,1.30
2022-09-11T18:38:22.206Z,1.30
2022-09-11T18:40:56.195Z,1.75
2022-09-11T18:43:22.891Z,1.40
2022-09-11T18:45:49.580Z,1.40
2022-09-11T18:48:17.072Z,1.25
2022-09-11T18:50:43.962Z,1.30
2022-09-11T18:53:10.939Z,1.45
2022-09-11T18:55:38.803Z,1.60
2022-09-11T18:58:06.100Z,1.10
2022-09-11T19:00:35.110Z,1.27
2022-09-11T19:03:02.318Z,1.30
2022-09-11T19:05:31.278Z,1.52
2022-09-11T19:08:00.230Z,1.48
2022-09-11T19:10:27.947Z,1.55
2022-09-11T19:12:54.824Z,1.33
2022-09-11T19:15:22.210Z,1.40
2022-09-11T19:17:50.315Z,1.38
2022-09-11T19:20:18.058Z,1.73
2022-09-11T19:22:45.114Z,1.77
2022-09-11T19:25:12.304Z,1.90
2022-09-11T19:27:39.528Z,1.92
2022-09-11T19:30:08.991Z,2.30
2022-09-11T19:32:36.776Z,2.20
2022-09-11T19:35:04.427Z,2.08
2022-09-11T19:37:31.583Z,2.03
2022-09-11T19:40:00.806Z,2.00
2022-09-11T19:42:28.750Z,1.58
2022-09-11T19:44:56.511Z,1.50
2022-09-11T19:47:25.081Z,1.55
2022-09-11T19:49:52.303Z,2.10
2022-09-11T19:52:19.424Z,2.10
2022-09-11T19:54:46.738Z,1.90
2022-09-11T19:57:14.066Z,1.95
2022-09-11T19:59:41.452Z,2.10
2022-09-11T20:02:11.355Z,1.98
2022-09-11T20:04:38.562Z,2.00
2022-09-11T20:07:05.943Z,2.28
2022-09-11T20:09:33.895Z,1.70
2022-09-11T20:12:01.733Z,1.92
2022-09-11T20:14:30.220Z,2.35
2022-09-11T20:16:57.531Z,2.63
2022-09-11T20:19:25.051Z,2.38
2022-09-11T20:21:53.609Z,2.42
2022-09-11T20:24:20.835Z,3.05
2022-09-11T20:26:48.123Z,2.90
2022-09-11T20:29:16.310Z,2.83
2022-09-11T20:31:49.040Z,2.75
2022-09-11T20:34:17.662Z,2.75
2022-09-11T20:36:45.031Z,2.63
2022-09-11T20:39:13.947Z,2.85
2022-09-11T20:41:41.819Z,2.58
2022-09-11T20:44:09.489Z,2.83
2022-09-11T20:46:36.908Z,2.75
2022-09-11T20:49:05.700Z,2.70
2022-09-11T20:51:33.594Z,3.13
2022-09-11T20:54:00.999Z,3.28
2022-09-11T20:56:27.990Z,3.15
2022-09-11T20:58:54.904Z,2.50
2022-09-11T21:01:24.278Z,3.33
2022-09-11T21:03:57.871Z,2.63
2022-09-11T21:06:27.218Z,2.92
2022-09-11T21:09:00.997Z,3.05
2022-09-11T21:11:29.970Z,2.80
2022-09-11T21:13:57.173Z,2.30
2022-09-11T21:16:24.136Z,2.20
2022-09-11T21:18:56.911Z,2.55
2022-09-11T21:21:24.647Z,2.72
2022-09-11T21:23:55.788Z,2.70
2022-09-11T21:26:22.593Z,2.55
2022-09-11T21:28:49.226Z,3.30
2022-09-11T21:31:15.885Z,2.25
2022-09-11T21:33:42.761Z,2.13
2022-09-11T21:36:09.476Z,2.10
2022-09-11T21:38:36.828Z,2.10
2022-09-11T21:41:06.634Z,2.38
2022-09-11T21:43:33.384Z,2.05
2022-09-11T21:46:00.331Z,2.17
2022-09-11T21:48:27.357Z,2.10
2022-09-11T21:50:55.281Z,2.08
2022-09-11T21:53:21.968Z,2.03
2022-09-11T21:55:48.736Z,2.15
2022-09-11T21:58:20.643Z,2.00
2022-09-11T22:00:48.767Z,2.20
2022-09-11T22:03:18.383Z,2.10
2022-09-11T22:05:48.592Z,1.95
2022-09-11T22:08:17.039Z,2.33
2022-09-11T22:10:51.688Z,2.35
2022-09-11T22:13:19.289Z,2.10
2022-09-11T22:15:50.186Z,2.90
2022-09-11T22:18:18.042Z,2.30
2022-09-11T22:20:45.589Z,2.40
2022-09-11T22:23:17.300Z,2.63
2022-09-11T22:25:45.063Z,2.35
2022-09-11T22:28:12.576Z,2.20
2022-09-11T22:30:43.426Z,2.45
2022-09-11T22:33:10.687Z,2.63
2022-09-11T22:35:37.420Z,2.53
2022-09-11T22:38:04.117Z,2.80
2022-09-11T22:40:30.972Z,2.38
2022-09-11T22:42:57.652Z,2.22
2022-09-11T22:45:24.314Z,2.50
2022-09-11T22:47:51.103Z,2.38
2022-09-11T22:50:18.006Z,2.50
2022-09-11T22:52:44.767Z,2.35
2022-09-11T22:55:11.448Z,4.70
2022-09-11T22:57:38.637Z,2.45
2022-09-11T23:00:07.412Z,2.58
2022-09-11T23:02:34.283Z,2.20
2022-09-11T23:05:19.721Z,2.30
2022-09-11T23:07:49.549Z,2.30
2022-09-11T23:10:16.791Z,2.00
2022-09-11T23:12:44.464Z,2.17
2022-09-11T23:15:11.552Z,2.10
2022-09-11T23:17:38.289Z,1.95
2022-09-11T23:20:05.528Z,2.25
2022-09-11T23:22:32.164Z,2.40
2022-09-11T23:24:58.900Z,2.03
2022-09-11T23:27:25.651Z,2.00
2022-09-11T23:29:52.468Z,2.42
2022-09-11T23:32:19.289Z,2.40
2022-09-11T23:34:46.023Z,2.13
2022-09-11T23:37:12.701Z,2.30
2022-09-11T23:39:39.537Z,2.22
2022-09-11T23:42:06.279Z,2.05
2022-09-11T23:44:33.002Z,2.38
2022-09-11T23:47:01.351Z,2.35
2022-09-11T23:49:31.219Z,2.10
2022-09-11T23:52:01.061Z,2.00
2022-09-11T23:54:27.696Z,2.17
2022-09-11T23:56:54.355Z,2.15
2022-09-11T23:59:21.120Z,2.00
